sensor_id;sensor_type;location;lat;lon;timestamp;P1;durP1;ratioP1;P2;durP2;ratioP2
21274;SDS011;36472;52.170;20.884;2022-09-01T00:00:09;1.63;;;0.98;;
21274;SDS011;36472;52.170;20.884;2022-09-01T00:02:59;3.05;;;1.23;;
21274;SDS011;36472;52.170;20.884;2022-09-01T00:05:28;2.45;;;1.35;;
21274;SDS011;36472;52.170;20.884;2022-09-01T00:07:58;1.73;;;1.10;;
21274;SDS011;36472;52.170;20.884;2022-09-01T00:10:29;2.25;;;0.90;;
21274;SDS011;36472;52.170;20.884;2022-09-01T00:12:57;2.47;;;1.20;;
21274;SDS011;36472;52.170;20.884;2022-09-01T00:15:26;1.45;;;0.98;;
21274;SDS011;36472;52.170;20.884;2022-09-01T00:17:55;2.83;;;1.00;;
21274;SDS011;36472;52.170;20.884;2022-09-01T00:20:24;1.63;;;0.80;;
21274;SDS011;36472;52.170;20.884;2022-09-01T00:22:53;1.85;;;1.30;;
21274;SDS011;36472;52.170;20.884;2022-09-01T00:25:22;2.03;;;1.10;;
21274;SDS011;36472;52.170;20.884;2022-09-01T00:27:52;2.33;;;1.05;;
21274;SDS011;36472;52.170;20.884;2022-09-01T00:30:25;1.08;;;0.90;;
21274;SDS011;36472;52.170;20.884;2022-09-01T00:32:54;3.78;;;1.20;;
21274;SDS011;36472;52.170;20.884;2022-09-01T00:35:23;3.85;;;1.48;;
21274;SDS011;36472;52.170;20.884;2022-09-01T00:37:52;2.03;;;1.30;;
21274;SDS011;36472;52.170;20.884;2022-09-01T00:40:23;2.65;;;1.38;;
21274;SDS011;36472;52.170;20.884;2022-09-01T00:42:53;2.67;;;0.93;;
21274;SDS011;36472;52.170;20.884;2022-09-01T00:45:22;3.28;;;1.30;;
21274;SDS011;36472;52.170;20.884;2022-09-01T00:47:51;1.55;;;1.20;;
21274;SDS011;36472;52.170;20.884;2022-09-01T00:50:20;3.42;;;1.40;;
21274;SDS011;36472;52.170;20.884;2022-09-01T00:52:51;2.42;;;1.08;;
21274;SDS011;36472;52.170;20.884;2022-09-01T00:55:24;2.63;;;1.20;;
21274;SDS011;36472;52.170;20.884;2022-09-01T00:58:00;3.15;;;1.40;;
21274;SDS011;36472;52.170;20.884;2022-09-01T01:00:32;3.22;;;1.10;;
21274;SDS011;36472;52.170;20.884;2022-09-01T01:03:07;2.78;;;1.55;;
21274;SDS011;36472;52.170;20.884;2022-09-01T01:05:40;2.78;;;1.10;;
21274;SDS011;36472;52.170;20.884;2022-09-01T01:08:19;3.55;;;1.42;;
21274;SDS011;36472;52.170;20.884;2022-09-01T01:11:00;1.73;;;0.82;;
21274;SDS011;36472;52.170;20.884;2022-09-01T01:13:37;1.88;;;1.20;;
21274;SDS011;36472;52.170;20.884;2022-09-01T01:16:17;2.03;;;1.05;;
21274;SDS011;36472;52.170;20.884;2022-09-01T01:18:46;2.08;;;1.13;;
21274;SDS011;36472;52.170;20.884;2022-09-01T01:21:17;1.42;;;1.00;;
21274;SDS011;36472;52.170;20.884;2022-09-01T01:24:16;1.55;;;0.80;;
21274;SDS011;36472;52.170;20.884;2022-09-01T01:26:50;1.20;;;1.00;;
21274;SDS011;36472;52.170;20.884;2022-09-01T01:29:20;0.95;;;0.80;;
21274;SDS011;36472;52.170;20.884;2022-09-01T01:31:49;3.30;;;1.27;;
21274;SDS011;36472;52.170;20.884;2022-09-01T01:34:19;2.47;;;0.88;;
21274;SDS011;36472;52.170;20.884;2022-09-01T01:36:51;2.75;;;1.08;;
21274;SDS011;36472;52.170;20.884;2022-09-01T01:39:24;1.10;;;0.90;;
21274;SDS011;36472;52.170;20.884;2022-09-01T01:41:54;2.28;;;0.98;;
21274;SDS011;36472;52.170;20.884;2022-09-01T01:44:25;1.67;;;0.77;;
21274;SDS011;36472;52.170;20.884;2022-09-01T01:46:59;1.23;;;1.00;;
21274;SDS011;36472;52.170;20.884;2022-09-01T01:49:35;1.80;;;1.02;;
21274;SDS011;36472;52.170;20.884;2022-09-01T01:52:10;1.88;;;0.90;;
21274;SDS011;36472;52.170;20.884;2022-09-01T01:54:46;1.33;;;1.00;;
21274;SDS011;36472;52.170;20.884;2022-09-01T01:57:15;2.40;;;1.00;;
21274;SDS011;36472;52.170;20.884;2022-09-01T01:59:44;1.55;;;0.82;;
21274;SDS011;36472;52.170;20.884;2022-09-01T02:02:13;1.90;;;1.00;;
21274;SDS011;36472;52.170;20.884;2022-09-01T02:04:42;1.27;;;0.88;;
21274;SDS011;36472;52.170;20.884;2022-09-01T02:07:11;1.30;;;0.70;;
21274;SDS011;36472;52.170;20.884;2022-09-01T02:09:41;3.15;;;0.90;;
21274;SDS011;36472;52.170;20.884;2022-09-01T02:12:15;3.08;;;1.30;;
21274;SDS011;36472;52.170;20.884;2022-09-01T02:14:45;2.10;;;0.98;;
21274;SDS011;36472;52.170;20.884;2022-09-01T02:17:15;1.98;;;1.08;;
21274;SDS011;36472;52.170;20.884;2022-09-01T02:19:44;1.67;;;0.85;;
21274;SDS011;36472;52.170;20.884;2022-09-01T02:22:14;1.73;;;1.10;;
21274;SDS011;36472;52.170;20.884;2022-09-01T02:24:45;1.20;;;1.00;;
21274;SDS011;36472;52.170;20.884;2022-09-01T02:27:17;2.28;;;1.05;;
21274;SDS011;36472;52.170;20.884;2022-09-01T02:29:53;1.98;;;1.30;;
21274;SDS011;36472;52.170;20.884;2022-09-01T02:32:24;1.48;;;1.10;;
21274;SDS011;36472;52.170;20.884;2022-09-01T02:34:54;3.53;;;1.13;;
21274;SDS011;36472;52.170;20.884;2022-09-01T02:37:27;3.30;;;1.42;;
21274;SDS011;36472;52.170;20.884;2022-09-01T02:39:55;1.50;;;1.08;;
21274;SDS011;36472;52.170;20.884;2022-09-01T02:42:26;2.13;;;1.08;;
21274;SDS011;36472;52.170;20.884;2022-09-01T02:44:55;1.80;;;1.30;;
21274;SDS011;36472;52.170;20.884;2022-09-01T02:47:24;1.38;;;0.95;;
21274;SDS011;36472;52.170;20.884;2022-09-01T02:49:55;1.77;;;1.15;;
21274;SDS011;36472;52.170;20.884;2022-09-01T02:52:28;1.45;;;1.30;;
21274;SDS011;36472;52.170;20.884;2022-09-01T02:55:01;1.10;;;1.00;;
21274;SDS011;36472;52.170;20.884;2022-09-01T02:57:32;2.22;;;1.30;;
21274;SDS011;36472;52.170;20.884;2022-09-01T03:00:03;2.85;;;1.20;;
21274;SDS011;36472;52.170;20.884;2022-09-01T03:02:47;1.17;;;0.98;;
21274;SDS011;36472;52.170;20.884;2022-09-01T03:05:19;3.00;;;1.13;;
21274;SDS011;36472;52.170;20.884;2022-09-01T03:07:53;1.75;;;1.20;;
21274;SDS011;36472;52.170;20.884;2022-09-01T03:10:27;1.92;;;1.23;;
21274;SDS011;36472;52.170;20.884;2022-09-01T03:13:03;3.53;;;1.33;;
21274;SDS011;36472;52.170;20.884;2022-09-01T03:15:34;3.80;;;1.30;;
21274;SDS011;36472;52.170;20.884;2022-09-01T03:18:07;1.63;;;1.10;;
21274;SDS011;36472;52.170;20.884;2022-09-01T03:20:39;2.55;;;1.08;;
21274;SDS011;36472;52.170;20.884;2022-09-01T03:23:13;2.88;;;1.10;;
21274;SDS011;36472;52.170;20.884;2022-09-01T03:25:47;2.03;;;1.23;;
21274;SDS011;36472;52.170;20.884;2022-09-01T03:28:17;2.30;;;1.25;;
21274;SDS011;36472;52.170;20.884;2022-09-01T03:30:47;3.03;;;1.02;;
21274;SDS011;36472;52.170;20.884;2022-09-01T03:33:21;2.70;;;1.10;;
21274;SDS011;36472;52.170;20.884;2022-09-01T03:35:53;1.58;;;1.15;;
21274;SDS011;36472;52.170;20.884;2022-09-01T03:38:24;2.03;;;1.30;;
21274;SDS011;36472;52.170;20.884;2022-09-01T03:40:54;2.08;;;1.42;;
21274;SDS011;36472;52.170;20.884;2022-09-01T03:43:31;1.35;;;1.00;;
21274;SDS011;36472;52.170;20.884;2022-09-01T03:46:02;2.47;;;1.45;;
21274;SDS011;36472;52.170;20.884;2022-09-01T03:48:32;4.53;;;1.50;;
21274;SDS011;36472;52.170;20.884;2022-09-01T03:51:02;4.35;;;1.27;;
21274;SDS011;36472;52.170;20.884;2022-09-01T03:53:32;3.65;;;1.15;;
21274;SDS011;36472;52.170;20.884;2022-09-01T03:56:05;2.38;;;1.38;;
21274;SDS011;36472;52.170;20.884;2022-09-01T03:58:36;2.55;;;1.30;;
21274;SDS011;36472;52.170;20.884;2022-09-01T04:01:05;3.22;;;1.50;;
21274;SDS011;36472;52.170;20.884;2022-09-01T04:03:39;1.50;;;1.23;;
21274;SDS011;36472;52.170;20.884;2022-09-01T04:06:12;2.33;;;1.40;;
21274;SDS011;36472;52.170;20.884;2022-09-01T04:08:44;2.40;;;1.60;;
21274;SDS011;36472;52.170;20.884;2022-09-01T04:11:14;3.97;;;1.45;;
21274;SDS011;36472;52.170;20.884;2022-09-01T04:13:52;1.92;;;1.30;;
21274;SDS011;36472;52.170;20.884;2022-09-01T04:16:21;2.28;;;1.55;;
21274;SDS011;36472;52.170;20.884;2022-09-01T04:19:12;2.20;;;1.30;;
21274;SDS011;36472;52.170;20.884;2022-09-01T04:21:47;2.50;;;1.50;;
21274;SDS011;36472;52.170;20.884;2022-09-01T04:24:20;4.40;;;1.60;;
21274;SDS011;36472;52.170;20.884;2022-09-01T04:26:51;3.95;;;1.70;;
21274;SDS011;36472;52.170;20.884;2022-09-01T04:29:23;4.28;;;1.50;;
21274;SDS011;36472;52.170;20.884;2022-09-01T04:31:55;1.70;;;1.60;;
21274;SDS011;36472;52.170;20.884;2022-09-01T04:34:32;4.15;;;1.58;;
21274;SDS011;36472;52.170;20.884;2022-09-01T04:37:08;3.75;;;2.30;;
21274;SDS011;36472;52.170;20.884;2022-09-01T04:39:41;2.13;;;1.73;;
21274;SDS011;36472;52.170;20.884;2022-09-01T04:42:23;4.63;;;1.80;;
21274;SDS011;36472;52.170;20.884;2022-09-01T04:44:57;4.30;;;1.65;;
21274;SDS011;36472;52.170;20.884;2022-09-01T04:47:36;4.32;;;1.95;;
21274;SDS011;36472;52.170;20.884;2022-09-01T04:50:09;2.25;;;1.73;;
21274;SDS011;36472;52.170;20.884;2022-09-01T04:53:03;3.47;;;1.77;;
21274;SDS011;36472;52.170;20.884;2022-09-01T04:55:38;2.70;;;1.90;;
21274;SDS011;36472;52.170;20.884;2022-09-01T04:58:11;2.55;;;1.60;;
21274;SDS011;36472;52.170;20.884;2022-09-01T05:00:46;4.75;;;1.77;;
21274;SDS011;36472;52.170;20.884;2022-09-01T05:03:19;3.25;;;1.63;;
21274;SDS011;36472;52.170;20.884;2022-09-01T05:05:58;2.80;;;1.65;;
21274;SDS011;36472;52.170;20.884;2022-09-01T05:08:30;2.53;;;1.60;;
21274;SDS011;36472;52.170;20.884;2022-09-01T05:11:04;4.22;;;2.10;;
21274;SDS011;36472;52.170;20.884;2022-09-01T05:13:47;2.65;;;1.80;;
21274;SDS011;36472;52.170;20.884;2022-09-01T05:16:25;3.55;;;1.83;;
21274;SDS011;36472;52.170;20.884;2022-09-01T05:18:55;3.40;;;1.70;;
21274;SDS011;36472;52.170;20.884;2022-09-01T05:21:29;3.45;;;1.67;;
21274;SDS011;36472;52.170;20.884;2022-09-01T05:23:59;4.63;;;2.10;;
21274;SDS011;36472;52.170;20.884;2022-09-01T05:26:31;3.33;;;1.67;;
21274;SDS011;36472;52.170;20.884;2022-09-01T05:29:03;5.00;;;1.73;;
21274;SDS011;36472;52.170;20.884;2022-09-01T05:31:38;1.88;;;1.52;;
21274;SDS011;36472;52.170;20.884;2022-09-01T05:34:08;2.78;;;1.92;;
21274;SDS011;36472;52.170;20.884;2022-09-01T05:36:41;2.63;;;1.50;;
21274;SDS011;36472;52.170;20.884;2022-09-01T05:39:12;4.10;;;1.60;;
21274;SDS011;36472;52.170;20.884;2022-09-01T05:41:41;3.80;;;1.50;;
21274;SDS011;36472;52.170;20.884;2022-09-01T05:44:12;3.53;;;1.58;;
21274;SDS011;36472;52.170;20.884;2022-09-01T05:46:44;2.35;;;1.50;;
21274;SDS011;36472;52.170;20.884;2022-09-01T05:49:15;4.25;;;1.75;;
21274;SDS011;36472;52.170;20.884;2022-09-01T05:51:47;3.47;;;1.67;;
21274;SDS011;36472;52.170;20.884;2022-09-01T05:54:21;3.25;;;1.70;;
21274;SDS011;36472;52.170;20.884;2022-09-01T05:56:54;4.40;;;1.80;;
21274;SDS011;36472;52.170;20.884;2022-09-01T05:59:45;3.35;;;1.30;;
21274;SDS011;36472;52.170;20.884;2022-09-01T06:02:23;3.45;;;1.30;;
21274;SDS011;36472;52.170;20.884;2022-09-01T06:04:55;2.83;;;1.30;;
21274;SDS011;36472;52.170;20.884;2022-09-01T06:07:30;3.92;;;1.50;;
21274;SDS011;36472;52.170;20.884;2022-09-01T06:10:01;5.18;;;1.38;;
21274;SDS011;36472;52.170;20.884;2022-09-01T06:12:29;3.33;;;1.55;;
21274;SDS011;36472;52.170;20.884;2022-09-01T06:14:59;3.45;;;1.00;;
21274;SDS011;36472;52.170;20.884;2022-09-01T06:17:31;2.08;;;1.30;;
21274;SDS011;36472;52.170;20.884;2022-09-01T06:20:04;1.73;;;1.02;;
21274;SDS011;36472;52.170;20.884;2022-09-01T06:22:39;2.53;;;1.00;;
21274;SDS011;36472;52.170;20.884;2022-09-01T06:25:09;2.10;;;1.20;;
21274;SDS011;36472;52.170;20.884;2022-09-01T06:27:42;1.33;;;1.13;;
21274;SDS011;36472;52.170;20.884;2022-09-01T06:30:13;1.92;;;1.00;;
21274;SDS011;36472;52.170;20.884;2022-09-01T06:33:08;3.78;;;0.90;;
21274;SDS011;36472;52.170;20.884;2022-09-01T06:35:42;1.27;;;0.82;;
21274;SDS011;36472;52.170;20.884;2022-09-01T06:38:13;2.92;;;1.17;;
21274;SDS011;36472;52.170;20.884;2022-09-01T06:40:47;1.95;;;0.98;;
21274;SDS011;36472;52.170;20.884;2022-09-01T06:43:21;4.13;;;1.27;;
21274;SDS011;36472;52.170;20.884;2022-09-01T06:45:50;2.88;;;0.98;;
21274;SDS011;36472;52.170;20.884;2022-09-01T06:48:27;2.40;;;1.13;;
21274;SDS011;36472;52.170;20.884;2022-09-01T06:51:07;2.42;;;0.88;;
21274;SDS011;36472;52.170;20.884;2022-09-01T06:53:44;3.65;;;0.70;;
21274;SDS011;36472;52.170;20.884;2022-09-01T06:56:24;2.60;;;0.70;;
21274;SDS011;36472;52.170;20.884;2022-09-01T06:58:58;3.38;;;0.90;;
21274;SDS011;36472;52.170;20.884;2022-09-01T07:01:33;1.55;;;0.90;;
21274;SDS011;36472;52.170;20.884;2022-09-01T07:04:03;2.45;;;0.60;;
21274;SDS011;36472;52.170;20.884;2022-09-01T07:06:44;1.45;;;0.60;;
21274;SDS011;36472;52.170;20.884;2022-09-01T07:09:54;1.35;;;0.70;;
21274;SDS011;36472;52.170;20.884;2022-09-01T07:12:47;1.60;;;0.70;;
21274;SDS011;36472;52.170;20.884;2022-09-01T07:15:36;4.13;;;0.70;;
21274;SDS011;36472;52.170;20.884;2022-09-01T07:18:30;0.38;;;0.25;;
21274;SDS011;36472;52.170;20.884;2022-09-01T07:21:04;2.35;;;0.50;;
21274;SDS011;36472;52.170;20.884;2022-09-01T07:23:54;1.13;;;0.43;;
21274;SDS011;36472;52.170;20.884;2022-09-01T07:26:39;0.90;;;0.40;;
21274;SDS011;36472;52.170;20.884;2022-09-01T07:29:28;1.70;;;0.60;;
21274;SDS011;36472;52.170;20.884;2022-09-01T07:31:59;1.25;;;0.40;;
21274;SDS011;36472;52.170;20.884;2022-09-01T07:34:48;0.95;;;0.40;;
21274;SDS011;36472;52.170;20.884;2022-09-01T07:37:22;0.73;;;0.32;;
21274;SDS011;36472;52.170;20.884;2022-09-01T07:40:14;1.70;;;0.35;;
21274;SDS011;36472;52.170;20.884;2022-09-01T07:43:26;1.35;;;0.47;;
21274;SDS011;36472;52.170;20.884;2022-09-01T07:46:17;2.35;;;0.70;;
21274;SDS011;36472;52.170;20.884;2022-09-01T07:49:06;0.52;;;0.40;;
21274;SDS011;36472;52.170;20.884;2022-09-01T07:51:56;2.15;;;0.30;;
21274;SDS011;36472;52.170;20.884;2022-09-01T07:54:31;0.32;;;0.30;;
21274;SDS011;36472;52.170;20.884;2022-09-01T07:57:03;2.20;;;0.55;;
21274;SDS011;36472;52.170;20.884;2022-09-01T07:59:34;2.67;;;0.43;;
21274;SDS011;36472;52.170;20.884;2022-09-01T08:02:23;1.00;;;0.32;;
21274;SDS011;36472;52.170;20.884;2022-09-01T08:04:54;0.80;;;0.30;;
21274;SDS011;36472;52.170;20.884;2022-09-01T08:07:22;0.60;;;0.30;;
21274;SDS011;36472;52.170;20.884;2022-09-01T08:09:53;1.25;;;0.60;;
21274;SDS011;36472;52.170;20.884;2022-09-01T08:12:28;0.68;;;0.30;;
21274;SDS011;36472;52.170;20.884;2022-09-01T08:14:57;0.77;;;0.40;;
21274;SDS011;36472;52.170;20.884;2022-09-01T08:17:46;1.23;;;0.30;;
21274;SDS011;36472;52.170;20.884;2022-09-01T08:20:19;3.15;;;0.70;;
21274;SDS011;36472;52.170;20.884;2022-09-01T08:22:51;2.55;;;0.47;;
21274;SDS011;36472;52.170;20.884;2022-09-01T08:25:27;0.60;;;0.40;;
21274;SDS011;36472;52.170;20.884;2022-09-01T08:27:58;1.27;;;0.40;;
21274;SDS011;36472;52.170;20.884;2022-09-01T08:30:29;0.93;;;0.38;;
21274;SDS011;36472;52.170;20.884;2022-09-01T08:32:59;1.33;;;0.50;;
21274;SDS011;36472;52.170;20.884;2022-09-01T08:35:41;1.45;;;0.40;;
21274;SDS011;36472;52.170;20.884;2022-09-01T08:38:15;0.40;;;0.40;;
21274;SDS011;36472;52.170;20.884;2022-09-01T08:40:50;0.50;;;0.40;;
21274;SDS011;36472;52.170;20.884;2022-09-01T08:43:31;1.38;;;0.60;;
21274;SDS011;36472;52.170;20.884;2022-09-01T08:46:18;1.15;;;0.60;;
21274;SDS011;36472;52.170;20.884;2022-09-01T08:48:54;2.28;;;0.65;;
21274;SDS011;36472;52.170;20.884;2022-09-01T08:52:05;2.25;;;0.60;;
21274;SDS011;36472;52.170;20.884;2022-09-01T08:54:48;2.28;;;0.40;;
21274;SDS011;36472;52.170;20.884;2022-09-01T08:57:29;2.50;;;0.60;;
21274;SDS011;36472;52.170;20.884;2022-09-01T09:00:23;0.88;;;0.60;;
21274;SDS011;36472;52.170;20.884;2022-09-01T09:03:06;0.60;;;0.50;;
21274;SDS011;36472;52.170;20.884;2022-09-01T09:05:53;1.00;;;0.68;;
21274;SDS011;36472;52.170;20.884;2022-09-01T09:08:43;0.88;;;0.50;;
21274;SDS011;36472;52.170;20.884;2022-09-01T09:11:33;1.75;;;0.60;;
21274;SDS011;36472;52.170;20.884;2022-09-01T09:14:40;1.20;;;0.50;;
21274;SDS011;36472;52.170;20.884;2022-09-01T09:17:27;0.30;;;0.30;;
21274;SDS011;36472;52.170;20.884;2022-09-01T09:20:02;0.70;;;0.40;;
21274;SDS011;36472;52.170;20.884;2022-09-01T09:22:32;1.20;;;0.50;;
21274;SDS011;36472;52.170;20.884;2022-09-01T09:25:02;2.38;;;0.45;;
21274;SDS011;36472;52.170;20.884;2022-09-01T09:27:37;1.70;;;0.40;;
21274;SDS011;36472;52.170;20.884;2022-09-01T09:30:11;1.02;;;0.30;;
21274;SDS011;36472;52.170;20.884;2022-09-01T09:32:47;0.80;;;0.35;;
21274;SDS011;36472;52.170;20.884;2022-09-01T09:35:41;0.82;;;0.30;;
21274;SDS011;36472;52.170;20.884;2022-09-01T09:38:16;0.40;;;0.35;;
21274;SDS011;36472;52.170;20.884;2022-09-01T09:40:56;1.13;;;0.30;;
21274;SDS011;36472;52.170;20.884;2022-09-01T09:43:48;0.77;;;0.30;;
21274;SDS011;36472;52.170;20.884;2022-09-01T09:46:32;1.13;;;0.25;;
21274;SDS011;36472;52.170;20.884;2022-09-01T09:49:05;3.90;;;0.30;;
21274;SDS011;36472;52.170;20.884;2022-09-01T09:51:42;0.57;;;0.38;;
21274;SDS011;36472;52.170;20.884;2022-09-01T09:54:17;0.98;;;0.40;;
21274;SDS011;36472;52.170;20.884;2022-09-01T09:57:01;0.52;;;0.30;;
21274;SDS011;36472;52.170;20.884;2022-09-01T09:59:40;0.75;;;0.55;;
21274;SDS011;36472;52.170;20.884;2022-09-01T10:02:27;0.60;;;0.30;;
21274;SDS011;36472;52.170;20.884;2022-09-01T10:05:20;0.45;;;0.20;;
21274;SDS011;36472;52.170;20.884;2022-09-01T10:07:56;1.27;;;0.40;;
21274;SDS011;36472;52.170;20.884;2022-09-01T10:10:27;1.38;;;0.30;;
21274;SDS011;36472;52.170;20.884;2022-09-01T10:13:03;0.30;;;0.30;;
21274;SDS011;36472;52.170;20.884;2022-09-01T10:15:37;0.52;;;0.30;;
21274;SDS011;36472;52.170;20.884;2022-09-01T10:18:13;1.80;;;0.50;;
21274;SDS011;36472;52.170;20.884;2022-09-01T10:20:50;1.08;;;0.20;;
21274;SDS011;36472;52.170;20.884;2022-09-01T10:23:28;3.80;;;0.50;;
21274;SDS011;36472;52.170;20.884;2022-09-01T10:26:02;0.68;;;0.40;;
21274;SDS011;36472;52.170;20.884;2022-09-01T10:28:40;0.70;;;0.30;;
21274;SDS011;36472;52.170;20.884;2022-09-01T10:31:18;1.23;;;0.30;;
21274;SDS011;36472;52.170;20.884;2022-09-01T10:33:51;0.47;;;0.20;;
21274;SDS011;36472;52.170;20.884;2022-09-01T10:36:24;1.90;;;0.25;;
21274;SDS011;36472;52.170;20.884;2022-09-01T10:38:53;0.55;;;0.30;;
21274;SDS011;36472;52.170;20.884;2022-09-01T10:41:50;1.75;;;0.30;;
21274;SDS011;36472;52.170;20.884;2022-09-01T10:44:26;1.55;;;0.22;;
21274;SDS011;36472;52.170;20.884;2022-09-01T10:47:02;0.38;;;0.30;;
21274;SDS011;36472;52.170;20.884;2022-09-01T10:52:52;1.27;;;0.15;;
21274;SDS011;36472;52.170;20.884;2022-09-01T10:55:30;0.40;;;0.22;;
21274;SDS011;36472;52.170;20.884;2022-09-01T10:58:25;1.88;;;0.28;;
21274;SDS011;36472;52.170;20.884;2022-09-01T11:07:44;0.88;;;0.30;;
21274;SDS011;36472;52.170;20.884;2022-09-01T11:10:35;0.95;;;0.35;;
21274;SDS011;36472;52.170;20.884;2022-09-01T11:13:35;0.25;;;0.22;;
21274;SDS011;36472;52.170;20.884;2022-09-01T11:16:26;0.80;;;0.80;;
21274;SDS011;36472;52.170;20.884;2022-09-01T11:19:20;0.55;;;0.30;;
21274;SDS011;36472;52.170;20.884;2022-09-01T11:22:08;1.55;;;0.35;;
21274;SDS011;36472;52.170;20.884;2022-09-01T11:31:19;1.85;;;0.40;;
21274;SDS011;36472;52.170;20.884;2022-09-01T11:34:02;0.45;;;0.30;;
21274;SDS011;36472;52.170;20.884;2022-09-01T11:36:55;0.93;;;0.30;;
21274;SDS011;36472;52.170;20.884;2022-09-01T11:39:32;1.02;;;0.40;;
21274;SDS011;36472;52.170;20.884;2022-09-01T11:42:11;1.67;;;0.32;;
21274;SDS011;36472;52.170;20.884;2022-09-01T11:44:48;0.88;;;0.32;;
21274;SDS011;36472;52.170;20.884;2022-09-01T11:47:24;1.08;;;0.40;;
21274;SDS011;36472;52.170;20.884;2022-09-01T11:49:59;0.82;;;0.50;;
21274;SDS011;36472;52.170;20.884;2022-09-01T11:52:33;0.40;;;0.40;;
21274;SDS011;36472;52.170;20.884;2022-09-01T11:55:07;0.30;;;0.30;;
21274;SDS011;36472;52.170;20.884;2022-09-01T11:57:37;3.85;;;0.60;;
21274;SDS011;36472;52.170;20.884;2022-09-01T12:00:08;0.70;;;0.40;;
21274;SDS011;36472;52.170;20.884;2022-09-01T12:02:42;0.65;;;0.43;;
21274;SDS011;36472;52.170;20.884;2022-09-01T12:05:24;0.80;;;0.35;;
21274;SDS011;36472;52.170;20.884;2022-09-01T12:07:57;0.40;;;0.40;;
21274;SDS011;36472;52.170;20.884;2022-09-01T12:10:31;0.80;;;0.30;;
21274;SDS011;36472;52.170;20.884;2022-09-01T12:13:04;1.05;;;0.50;;
21274;SDS011;36472;52.170;20.884;2022-09-01T12:15:36;4.88;;;0.40;;
21274;SDS011;36472;52.170;20.884;2022-09-01T12:18:29;2.80;;;0.30;;
21274;SDS011;36472;52.170;20.884;2022-09-01T12:21:02;2.67;;;0.40;;
21274;SDS011;36472;52.170;20.884;2022-09-01T12:23:34;1.20;;;0.50;;
21274;SDS011;36472;52.170;20.884;2022-09-01T12:26:10;2.30;;;0.40;;
21274;SDS011;36472;52.170;20.884;2022-09-01T12:28:42;2.28;;;0.50;;
21274;SDS011;36472;52.170;20.884;2022-09-01T12:31:16;3.40;;;0.63;;
21274;SDS011;36472;52.170;20.884;2022-09-01T12:33:50;0.32;;;0.20;;
21274;SDS011;36472;52.170;20.884;2022-09-01T12:36:22;0.30;;;0.30;;
21274;SDS011;36472;52.170;20.884;2022-09-01T12:38:55;0.63;;;0.50;;
21274;SDS011;36472;52.170;20.884;2022-09-01T12:42:01;2.17;;;0.20;;
21274;SDS011;36472;52.170;20.884;2022-09-01T12:44:43;0.95;;;0.50;;
21274;SDS011;36472;52.170;20.884;2022-09-01T12:50:35;0.73;;;0.40;;
21274;SDS011;36472;52.170;20.884;2022-09-01T12:53:13;0.40;;;0.40;;
21274;SDS011;36472;52.170;20.884;2022-09-01T12:55:55;0.40;;;0.20;;
21274;SDS011;36472;52.170;20.884;2022-09-01T12:58:49;1.20;;;0.43;;
21274;SDS011;36472;52.170;20.884;2022-09-01T13:01:40;0.55;;;0.40;;
21274;SDS011;36472;52.170;20.884;2022-09-01T13:04:24;0.85;;;0.35;;
21274;SDS011;36472;52.170;20.884;2022-09-01T13:06:59;0.50;;;0.20;;
21274;SDS011;36472;52.170;20.884;2022-09-01T13:09:34;0.43;;;0.30;;
21274;SDS011;36472;52.170;20.884;2022-09-01T13:12:10;0.40;;;0.30;;
21274;SDS011;36472;52.170;20.884;2022-09-01T13:14:47;0.43;;;0.30;;
21274;SDS011;36472;52.170;20.884;2022-09-01T13:17:17;0.88;;;0.40;;
21274;SDS011;36472;52.170;20.884;2022-09-01T13:19:47;1.05;;;0.50;;
21274;SDS011;36472;52.170;20.884;2022-09-01T13:22:16;1.17;;;0.30;;
21274;SDS011;36472;52.170;20.884;2022-09-01T13:24:44;0.32;;;0.30;;
21274;SDS011;36472;52.170;20.884;2022-09-01T13:27:13;1.27;;;0.43;;
21274;SDS011;36472;52.170;20.884;2022-09-01T13:29:48;2.25;;;0.30;;
21274;SDS011;36472;52.170;20.884;2022-09-01T13:32:17;0.63;;;0.45;;
21274;SDS011;36472;52.170;20.884;2022-09-01T13:34:48;3.22;;;0.55;;
21274;SDS011;36472;52.170;20.884;2022-09-01T13:37:20;2.65;;;0.50;;
21274;SDS011;36472;52.170;20.884;2022-09-01T13:39:49;0.60;;;0.20;;
21274;SDS011;36472;52.170;20.884;2022-09-01T13:42:18;1.02;;;0.65;;
21274;SDS011;36472;52.170;20.884;2022-09-01T13:44:48;0.20;;;0.20;;
21274;SDS011;36472;52.170;20.884;2022-09-01T13:47:21;0.35;;;0.30;;
21274;SDS011;36472;52.170;20.884;2022-09-01T13:49:56;4.07;;;0.57;;
21274;SDS011;36472;52.170;20.884;2022-09-01T13:52:37;1.23;;;0.40;;
21274;SDS011;36472;52.170;20.884;2022-09-01T13:55:09;0.60;;;0.35;;
21274;SDS011;36472;52.170;20.884;2022-09-01T13:57:39;0.50;;;0.32;;
21274;SDS011;36472;52.170;20.884;2022-09-01T14:00:10;5.05;;;0.70;;
21274;SDS011;36472;52.170;20.884;2022-09-01T14:02:44;1.17;;;0.30;;
21274;SDS011;36472;52.170;20.884;2022-09-01T14:05:16;1.48;;;0.50;;
21274;SDS011;36472;52.170;20.884;2022-09-01T14:07:47;2.22;;;0.60;;
21274;SDS011;36472;52.170;20.884;2022-09-01T14:10:16;1.38;;;0.50;;
21274;SDS011;36472;52.170;20.884;2022-09-01T14:12:46;1.75;;;0.40;;
21274;SDS011;36472;52.170;20.884;2022-09-01T14:15:17;1.67;;;0.38;;
21274;SDS011;36472;52.170;20.884;2022-09-01T14:17:54;0.80;;;0.40;;
21274;SDS011;36472;52.170;20.884;2022-09-01T14:20:26;4.00;;;0.40;;
21274;SDS011;36472;52.170;20.884;2022-09-01T14:23:03;1.17;;;0.30;;
21274;SDS011;36472;52.170;20.884;2022-09-01T14:25:33;3.20;;;0.40;;
21274;SDS011;36472;52.170;20.884;2022-09-01T14:28:03;2.22;;;0.43;;
21274;SDS011;36472;52.170;20.884;2022-09-01T14:30:33;1.63;;;0.70;;
21274;SDS011;36472;52.170;20.884;2022-09-01T14:33:03;0.63;;;0.32;;
21274;SDS011;36472;52.170;20.884;2022-09-01T14:35:35;3.10;;;0.70;;
21274;SDS011;36472;52.170;20.884;2022-09-01T14:38:06;1.23;;;0.50;;
21274;SDS011;36472;52.170;20.884;2022-09-01T14:40:37;0.77;;;0.50;;
21274;SDS011;36472;52.170;20.884;2022-09-01T14:43:08;2.22;;;0.50;;
21274;SDS011;36472;52.170;20.884;2022-09-01T14:45:41;3.13;;;0.63;;
21274;SDS011;36472;52.170;20.884;2022-09-01T14:48:12;1.23;;;0.50;;
21274;SDS011;36472;52.170;20.884;2022-09-01T14:50:43;1.08;;;0.40;;
21274;SDS011;36472;52.170;20.884;2022-09-01T14:53:17;0.40;;;0.40;;
21274;SDS011;36472;52.170;20.884;2022-09-01T14:55:45;1.55;;;0.50;;
21274;SDS011;36472;52.170;20.884;2022-09-01T14:58:20;0.80;;;0.50;;
21274;SDS011;36472;52.170;20.884;2022-09-01T15:00:51;2.00;;;0.40;;
21274;SDS011;36472;52.170;20.884;2022-09-01T15:03:38;0.70;;;0.50;;
21274;SDS011;36472;52.170;20.884;2022-09-01T15:06:06;2.45;;;0.43;;
21274;SDS011;36472;52.170;20.884;2022-09-01T15:08:39;1.15;;;0.35;;
21274;SDS011;36472;52.170;20.884;2022-09-01T15:11:09;1.90;;;0.40;;
21274;SDS011;36472;52.170;20.884;2022-09-01T15:13:39;0.57;;;0.40;;
21274;SDS011;36472;52.170;20.884;2022-09-01T15:16:13;0.45;;;0.40;;
21274;SDS011;36472;52.170;20.884;2022-09-01T15:18:44;1.33;;;0.43;;
21274;SDS011;36472;52.170;20.884;2022-09-01T15:21:19;3.60;;;0.68;;
21274;SDS011;36472;52.170;20.884;2022-09-01T15:23:50;0.85;;;0.40;;
21274;SDS011;36472;52.170;20.884;2022-09-01T15:26:20;0.68;;;0.20;;
21274;SDS011;36472;52.170;20.884;2022-09-01T15:28:49;1.05;;;0.38;;
21274;SDS011;36472;52.170;20.884;2022-09-01T15:31:19;1.40;;;0.40;;
21274;SDS011;36472;52.170;20.884;2022-09-01T15:33:59;0.60;;;0.40;;
21274;SDS011;36472;52.170;20.884;2022-09-01T15:36:33;2.35;;;0.30;;
21274;SDS011;36472;52.170;20.884;2022-09-01T15:39:05;0.95;;;0.50;;
21274;SDS011;36472;52.170;20.884;2022-09-01T15:41:36;1.77;;;0.40;;